• Join FlightAware (Why Join?)
  • Login
  • US Flag 
04:51AM EDT


 

Airport Tracker/Info


-or-


 

Live Flight TrackerFlight Track Log ✈ SWA471 ✈ 14-Apr-2013 ✈ KBWI - KMCI

Flight Track Log - Related Links

Times and Time Zones

All times are in EDT time to prevent confusion due to time zone crossing. See the SWA471 flight status page for this flight to view local times or setup timezone preferences in your user account.

Time Position Orientation Groundspeed Altitude Reporting Facility
EDT Latitude Longitude Course Direction KTS MPH feet Rate Location/Type
06:16PM 39.1833 -76.7500 282° West 217 250 2,600  Level Potomac TRACON
06:17PM 39.2000 -76.8500 282° West 255 293 5,800 3,300 Climbing Potomac TRACON
06:18PM 39.2167 -76.9333 284° West 241 277 9,200 3,000 Climbing Potomac TRACON
06:19PM 39.2167 -77.0167 270° West 270 311 11,900 2,880 Climbing Potomac TRACON
06:20PM 39.2167 -77.1167 270° West 274 315 15,000 2,580 Climbing Potomac TRACON
06:22PM 39.1333 -77.2000 218° Southwest 311 358 17,600 1,980 Climbing Potomac TRACON
06:24PM 39.0028 -77.3519 222° Southwest 305 351 22,300 1,800 Climbing Washington Center
06:25PM 38.9864 -77.4636 259° West 294 338 23,800 1,020 Climbing Washington Center
06:26PM 38.9656 -77.5886 258° West 341 392 24,400 480 Climbing Washington Center
06:27PM 38.9381 -77.7372 257° West 390 449 24,800 540 Climbing Washington Center
06:28PM 38.9125 -77.8833 257° West 414 476 25,500 540 Climbing Washington Center
06:29PM 38.8867 -78.0292 257° West 424 488 25,900 240 Climbing Washington Center
06:30PM 38.8608 -78.1697 257° West 424 488 26,000  Climbing Washington Center
06:31PM 38.8492 -78.3131 264° West 419 482 26,000  Level Washington Center
06:32PM 38.8500 -78.4597 270° West 413 475 26,000  Level Washington Center
06:33PM 38.8486 -78.6036 269° West 403 464 26,000  Level Washington Center
06:34PM 38.8469 -78.7450 269° West 403 464 26,000  Level Washington Center
06:35PM 38.8433 -78.8833 268° West 398 458 26,000 -360 Level Washington Center
06:36PM 38.8414 -79.0272 269° West 398 458 25,300 -1,020 Descending Washington Center
06:37PM 38.8392 -79.1736 269° West 408 470 24,000 -660 Descending Washington Center
06:38PM 38.8369 -79.3200 269° West 413 475 24,000  Level Washington Center
06:39PM 38.8344 -79.4639 269° West 413 475 24,000  Level Washington Center
06:40PM 38.8342 -79.5972 270° West 418 481 24,000  Level Washington Center
06:41PM 38.8314 -79.7411 269° West 419 482 24,000  Level Washington Center
06:43PM 38.8214 -80.0156 267° West 398 458 24,000  Level Indianapolis Center
06:44PM 38.8183 -80.1578 268° West 399 459 24,000  Level Indianapolis Center
06:45PM 38.8147 -80.3011 268° West 400 460 24,000  Level Indianapolis Center
06:46PM 38.8100 -80.4447 268° West 402 463 24,000  Level Indianapolis Center
06:47PM 38.8058 -80.6169 268° West 403 464 24,000  Level Indianapolis Center
06:48PM 38.8028 -80.7600 268° West 404 465 24,000  Level Indianapolis Center
06:49PM 38.7961 -80.9025 267° West 402 463 24,000  Level Indianapolis Center
06:50PM 38.7917 -81.0447 268° West 402 463 24,000  Level Indianapolis Center
06:51PM 38.7872 -81.1894 268° West 406 467 24,000  Level Indianapolis Center
06:52PM 38.7822 -81.3311 267° West 403 464 24,000  Level Indianapolis Center
06:53PM 38.7769 -81.4997 268° West 403 464 24,000  Level Indianapolis Center
06:54PM 38.7706 -81.6383 267° West 404 465 24,000  Level Indianapolis Center
06:55PM 38.7650 -81.7794 267° West 403 464 24,000  Level Indianapolis Center
06:56PM 38.7594 -81.9200 267° West 398 458 24,000  Level Indianapolis Center
06:57PM 38.7519 -82.0911 267° West 402 463 24,000  Level Indianapolis Center
06:58PM 38.7467 -82.2333 267° West 401 461 24,000  Level Indianapolis Center
06:59PM 38.7419 -82.3758 268° West 400 460 24,000  Level Indianapolis Center
07:00PM 38.7356 -82.5183 267° West 401 461 24,000  Level Indianapolis Center
07:01PM 38.7383 -82.6628 271° West 408 470 24,000  Level Indianapolis Center
07:02PM 38.7594 -82.8056 281° West 408 470 24,000  Level Indianapolis Center
07:04PM 38.7783 -82.9486 280° West 407 468 24,000  Level Indianapolis Center
07:05PM 38.8019 -83.1231 280° West 413 475 24,000  Level Indianapolis Center
07:06PM 38.8186 -83.2531 279° West 414 476 24,000  Level Indianapolis Center
07:07PM 38.8372 -83.3994 279° West 413 475 24,000  Level Indianapolis Center
07:08PM 38.8597 -83.5706 280° West 412 474 24,000  Level Indianapolis Center
07:09PM 38.8789 -83.7172 280° West 413 475 24,000  Level Indianapolis Center
07:10PM 38.8969 -83.8669 279° West 418 481 24,000  Level Indianapolis Center
07:11PM 38.9161 -84.0144 280° West 415 478 24,000  Level Indianapolis Center
07:12PM 38.9336 -84.1631 279° West 417 480 24,000  Level Indianapolis Center
07:13PM 38.9525 -84.3106 279° West 415 478 24,000  Level Indianapolis Center
07:14PM 38.9703 -84.4606 279° West 418 481 24,000  Level Indianapolis Center
07:15PM 38.9878 -84.6103 279° West 421 484 24,000  Level Indianapolis Center
07:16PM 39.0050 -84.7581 279° West 416 479 24,000  Level Indianapolis Center
07:17PM 39.0225 -84.9081 279° West 418 481 24,000  Level Indianapolis Center
07:18PM 39.0408 -85.0558 279° West 419 482 24,000  Level Indianapolis Center
07:19PM 39.0606 -85.2347 278° West 418 481 24,000  Level Indianapolis Center
07:20PM 39.0778 -85.3811 279° West 419 482 24,000  Level Indianapolis Center
07:21PM 39.0928 -85.5292 277° West 417 480 24,000  Level Indianapolis Center
07:22PM 39.1108 -85.6786 279° West 422 486 24,000  Level Indianapolis Center
07:23PM 39.1272 -85.8272 278° West 420 483 24,000  Level Indianapolis Center
07:24PM 39.1439 -85.9742 278° West 416 479 24,000  Level Indianapolis Center
07:25PM 39.1589 -86.1222 277° West 418 481 24,000  Level Indianapolis Center
07:26PM 39.1742 -86.2692 278° West 416 479 24,000  Level Indianapolis Center
07:27PM 39.1925 -86.4436 278° West 412 474 24,000  Level Indianapolis Center
07:28PM 39.2072 -86.5892 277° West 409 471 24,000  Level Indianapolis Center
07:29PM 39.2214 -86.7322 277° West 405 466 24,000  Level Indianapolis Center
07:30PM 39.2361 -86.8744 278° West 402 463 24,000  Level Indianapolis Center
07:31PM 39.2503 -87.0178 277° West 403 464 24,000  Level Indianapolis Center
07:32PM 39.2636 -87.1614 277° West 403 464 24,000  Level Indianapolis Center
07:33PM 39.2781 -87.3042 277° West 403 464 24,000  Level Indianapolis Center
07:34PM 39.2914 -87.4472 277° West 403 464 24,000  Level Indianapolis Center
07:35PM 39.3069 -87.6194 277° West 403 464 24,000  Level Indianapolis Center
07:36PM 39.3203 -87.7647 277° West 405 466 24,000  Level Indianapolis Center
07:37PM 39.3336 -87.9094 277° West 406 467 24,000  Level Indianapolis Center
07:38PM 39.3406 -87.9994 276° West 408 470 24,000  Level Kansas City Center
07:39PM 39.3569 -88.1731 277° West 407 468 24,000  Level Kansas City Center
07:40PM 39.3689 -88.3186 276° West 408 470 24,000  Level Kansas City Center
07:41PM 39.3822 -88.4642 277° West 407 468 24,000  Level Kansas City Center
07:42PM 39.3947 -88.6203 276° West 408 470 24,000  Level Kansas City Center
07:43PM 39.4081 -88.7686 277° West 407 468 24,000  Level Kansas City Center
07:44PM 39.4189 -88.9153 276° West 409 471 24,000  Level Kansas City Center
07:45PM 39.4317 -89.0608 277° West 407 468 24,000  Level Kansas City Center
07:46PM 39.4422 -89.2047 275° West 403 464 24,000  Level Kansas City Center
07:48PM 39.4536 -89.3431 276° West 406 467 24,000  Level Kansas City Center
07:49PM 39.4647 -89.4861 276° West 403 464 24,000  Level Kansas City Center
07:50PM 39.4775 -89.6592 276° West 405 466 24,000  Level Kansas City Center
07:51PM 39.4881 -89.8031 275° West 405 466 24,000  Level Kansas City Center
07:52PM 39.4989 -89.9456 276° West 403 464 24,000  Level Kansas City Center
07:53PM 39.5089 -90.0897 275° West 404 465 24,000  Level Kansas City Center
07:54PM 39.5194 -90.2317 276° West 401 461 24,000  Level Kansas City Center
07:55PM 39.5289 -90.3722 275° West 398 458 24,000  Level Kansas City Center
07:56PM 39.5403 -90.5408 275° West 395 455 24,000  Level Kansas City Center
07:57PM 39.5494 -90.6811 275° West 394 453 24,000  Level Kansas City Center
07:58PM 39.5589 -90.8206 275° West 392 451 24,000  Level Kansas City Center
07:59PM 39.5672 -90.9617 274° West 394 453 24,000  Level Kansas City Center
08:00PM 39.5764 -91.1014 275° West 392 451 24,000  Level Kansas City Center
08:01PM 39.5850 -91.2411 275° West 391 450 24,000  Level Kansas City Center
08:02PM 39.5939 -91.3944 274° West 394 453 24,000  Level Kansas City Center
08:03PM 39.6025 -91.5336 275° West 392 451 24,000  Level Kansas City Center
08:04PM 39.6106 -91.6736 274° West 392 451 24,000  Level Kansas City Center
08:05PM 39.6189 -91.8419 274° West 391 450 24,000  Level Kansas City Center
08:06PM 39.6278 -91.9797 275° West 388 447 24,000  Level Kansas City Center
08:07PM 39.6353 -92.1194 274° West 391 450 24,000  Level Kansas City Center
08:08PM 39.6431 -92.2575 274° West 387 445 24,000  Level Kansas City Center
08:09PM 39.6503 -92.3967 274° West 388 447 24,000  Level Kansas City Center
08:10PM 39.6547 -92.5358 272° West 387 445 24,000  Level Kansas City Center
08:11PM 39.6517 -92.7011 269° West 385 443 24,000  Level Kansas City Center
08:12PM 39.6503 -92.8406 269° West 387 445 24,000  Level Kansas City Center
08:13PM 39.6472 -92.9828 268° West 392 451 24,000  Level Kansas City Center
08:14PM 39.6342 -93.1203 263° West 389 448 24,000 -120 Level Kansas City Center
08:15PM 39.6208 -93.2583 263° West 388 447 23,800 -600 Descending Kansas City Center
08:16PM 39.6078 -93.3906 263° West 377 434 22,800 -960 Descending Kansas City Center
08:17PM 39.5931 -93.5228 262° West 367 422 21,900 -1,620 Descending Kansas City Center
08:18PM 39.5544 -93.6606 250° West 351 404 19,400 -2,580 Descending Kansas City Center
08:19PM 39.5031 -93.7661 238° Southwest 340 391 16,600 -2,640 Descending Kansas City Center
08:20PM 39.4558 -93.8614 237° Southwest 326 375 14,000 -2,220 Descending Kansas City Center
08:21PM 39.4078 -93.9647 239° Southwest 299 344 12,100 -1,320 Descending Kansas City Center
08:22PM 39.3692 -94.0464 239° Southwest 277 319 11,400 -1,260 Descending Kansas City Center
08:24PM 39.3261 -94.1364 238° Southwest 264 304 9,500 -1,740 Descending Kansas City Center
08:25PM 39.2911 -94.2131 239° Southwest 259 298 7,900 -1,560 Descending Kansas City Center
08:26PM 39.2761 -94.3003 258° West 261 300 6,300 -1,680 Descending Kansas City Center
08:27PM 39.2619 -94.4019 260° West 260 299 4,500 -1,140 Descending Kansas City Center
08:28PM 39.2711 -94.4861 278° West 245 282 4,000 -720 Descending Kansas City Center
08:29PM 39.2769 -94.5619 276° West 190 219 3,000 -840 Descending Kansas City Center
08:30PM 39.2808 -94.6097 276° West 145 167 2,300 -720 Descending Kansas City Center
08:31PM 39.2856 -94.6606 277° West 130 150 1,600 -660 Descending Kansas City Center
08:32PM 39.2900 -94.7108 277° West 131 151 1,000 -600 Descending Kansas City Center
08:34PM 39.2833 -94.7000 270° West  Level FlightAware Approximate